sensor_id;sensor_type;location;lat;lon;timestamp;P1;durP1;ratioP1;P2;durP2;ratioP2
1346;SDS011;667;48.796;9.480;2022-10-10T00:01:25;5.60;;;5.10;;
1346;SDS011;667;48.796;9.480;2022-10-10T00:03:52;6.15;;;4.90;;
1346;SDS011;667;48.796;9.480;2022-10-10T00:06:18;4.53;;;4.13;;
1346;SDS011;667;48.796;9.480;2022-10-10T00:08:44;5.53;;;4.73;;
1346;SDS011;667;48.796;9.480;2022-10-10T00:11:10;5.55;;;4.80;;
1346;SDS011;667;48.796;9.480;2022-10-10T00:13:37;5.50;;;4.53;;
1346;SDS011;667;48.796;9.480;2022-10-10T00:16:03;5.95;;;4.95;;
1346;SDS011;667;48.796;9.480;2022-10-10T00:18:29;6.70;;;4.60;;
1346;SDS011;667;48.796;9.480;2022-10-10T00:20:55;5.72;;;4.85;;
1346;SDS011;667;48.796;9.480;2022-10-10T00:23:21;6.27;;;5.43;;
1346;SDS011;667;48.796;9.480;2022-10-10T00:25:47;4.97;;;4.40;;
1346;SDS011;667;48.796;9.480;2022-10-10T00:28:14;5.40;;;4.95;;
1346;SDS011;667;48.796;9.480;2022-10-10T00:30:40;5.40;;;4.90;;
1346;SDS011;667;48.796;9.480;2022-10-10T00:33:06;5.50;;;5.00;;
1346;SDS011;667;48.796;9.480;2022-10-10T00:35:31;9.07;;;5.40;;
1346;SDS011;667;48.796;9.480;2022-10-10T00:37:57;6.30;;;4.90;;
1346;SDS011;667;48.796;9.480;2022-10-10T00:40:23;5.70;;;5.20;;
1346;SDS011;667;48.796;9.480;2022-10-10T00:42:49;5.90;;;5.40;;
1346;SDS011;667;48.796;9.480;2022-10-10T00:45:19;7.90;;;5.57;;
1346;SDS011;667;48.796;9.480;2022-10-10T00:47:48;7.63;;;4.47;;
1346;SDS011;667;48.796;9.480;2022-10-10T00:50:15;6.90;;;5.65;;
1346;SDS011;667;48.796;9.480;2022-10-10T00:52:43;6.93;;;4.90;;
1346;SDS011;667;48.796;9.480;2022-10-10T00:55:09;7.67;;;4.63;;
1346;SDS011;667;48.796;9.480;2022-10-10T00:57:36;5.78;;;4.75;;
1346;SDS011;667;48.796;9.480;2022-10-10T01:00:02;7.57;;;5.23;;
1346;SDS011;667;48.796;9.480;2022-10-10T01:02:28;5.22;;;4.72;;
1346;SDS011;667;48.796;9.480;2022-10-10T01:04:54;6.60;;;5.37;;
1346;SDS011;667;48.796;9.480;2022-10-10T01:07:24;7.00;;;5.10;;
1346;SDS011;667;48.796;9.480;2022-10-10T01:09:53;5.22;;;4.72;;
1346;SDS011;667;48.796;9.480;2022-10-10T01:14:50;5.47;;;4.97;;
1346;SDS011;667;48.796;9.480;2022-10-10T01:17:32;5.55;;;4.72;;
1346;SDS011;667;48.796;9.480;2022-10-10T01:20:19;6.03;;;5.22;;
1346;SDS011;667;48.796;9.480;2022-10-10T01:26:05;5.70;;;4.82;;
1346;SDS011;667;48.796;9.480;2022-10-10T01:31:45;5.88;;;4.95;;
1346;SDS011;667;48.796;9.480;2022-10-10T01:34:18;6.13;;;5.53;;
1346;SDS011;667;48.796;9.480;2022-10-10T01:39:48;5.45;;;4.90;;
1346;SDS011;667;48.796;9.480;2022-10-10T01:42:27;6.18;;;5.15;;
1346;SDS011;667;48.796;9.480;2022-10-10T01:44:57;7.75;;;5.63;;
1346;SDS011;667;48.796;9.480;2022-10-10T01:47:23;5.90;;;5.33;;
1346;SDS011;667;48.796;9.480;2022-10-10T01:49:50;6.63;;;5.83;;
1346;SDS011;667;48.796;9.480;2022-10-10T02:00:52;5.88;;;4.75;;
1346;SDS011;667;48.796;9.480;2022-10-10T02:03:28;5.35;;;4.85;;
1346;SDS011;667;48.796;9.480;2022-10-10T02:06:06;6.25;;;5.72;;
1346;SDS011;667;48.796;9.480;2022-10-10T02:08:44;7.55;;;6.03;;
1346;SDS011;667;48.796;9.480;2022-10-10T02:11:15;7.55;;;6.45;;
1346;SDS011;667;48.796;9.480;2022-10-10T02:13:46;5.47;;;4.97;;
1346;SDS011;667;48.796;9.480;2022-10-10T02:16:16;7.30;;;6.50;;
1346;SDS011;667;48.796;9.480;2022-10-10T02:18:48;6.47;;;5.28;;
1346;SDS011;667;48.796;9.480;2022-10-10T02:21:15;6.50;;;4.90;;
1346;SDS011;667;48.796;9.480;2022-10-10T02:23:42;5.53;;;4.57;;
1346;SDS011;667;48.796;9.480;2022-10-10T02:26:11;5.43;;;4.93;;
1346;SDS011;667;48.796;9.480;2022-10-10T02:28:56;5.43;;;4.78;;
1346;SDS011;667;48.796;9.480;2022-10-10T02:34:14;5.30;;;4.80;;
1346;SDS011;667;48.796;9.480;2022-10-10T02:36:43;5.88;;;5.10;;
1346;SDS011;667;48.796;9.480;2022-10-10T02:39:12;5.47;;;5.05;;
1346;SDS011;667;48.796;9.480;2022-10-10T02:41:39;6.03;;;5.40;;
1346;SDS011;667;48.796;9.480;2022-10-10T02:44:06;6.75;;;5.80;;
1346;SDS011;667;48.796;9.480;2022-10-10T02:46:32;5.47;;;4.97;;
1346;SDS011;667;48.796;9.480;2022-10-10T02:48:59;5.53;;;4.60;;
1346;SDS011;667;48.796;9.480;2022-10-10T02:51:26;4.82;;;4.43;;
1346;SDS011;667;48.796;9.480;2022-10-10T02:53:51;5.27;;;4.73;;
1346;SDS011;667;48.796;9.480;2022-10-10T02:56:17;5.07;;;4.57;;
1346;SDS011;667;48.796;9.480;2022-10-10T02:58:42;7.10;;;4.43;;
1346;SDS011;667;48.796;9.480;2022-10-10T03:01:08;5.37;;;4.37;;
1346;SDS011;667;48.796;9.480;2022-10-10T03:03:34;5.55;;;4.63;;
1346;SDS011;667;48.796;9.480;2022-10-10T03:06:00;4.70;;;4.30;;
1346;SDS011;667;48.796;9.480;2022-10-10T03:08:26;8.13;;;4.72;;
1346;SDS011;667;48.796;9.480;2022-10-10T03:10:56;6.97;;;4.63;;
1346;SDS011;667;48.796;9.480;2022-10-10T03:13:23;5.43;;;4.82;;
1346;SDS011;667;48.796;9.480;2022-10-10T03:15:49;5.77;;;4.60;;
1346;SDS011;667;48.796;9.480;2022-10-10T03:18:15;6.03;;;4.80;;
1346;SDS011;667;48.796;9.480;2022-10-10T03:20:43;10.43;;;5.30;;
1346;SDS011;667;48.796;9.480;2022-10-10T03:23:09;5.95;;;4.80;;
1346;SDS011;667;48.796;9.480;2022-10-10T03:25:38;6.00;;;4.60;;
1346;SDS011;667;48.796;9.480;2022-10-10T03:28:05;5.32;;;4.93;;
1346;SDS011;667;48.796;9.480;2022-10-10T03:30:30;5.60;;;4.57;;
1346;SDS011;667;48.796;9.480;2022-10-10T03:32:56;6.07;;;5.10;;
1346;SDS011;667;48.796;9.480;2022-10-10T03:35:21;5.83;;;4.93;;
1346;SDS011;667;48.796;9.480;2022-10-10T03:37:47;6.70;;;4.87;;
1346;SDS011;667;48.796;9.480;2022-10-10T03:40:12;5.17;;;4.67;;
1346;SDS011;667;48.796;9.480;2022-10-10T03:42:41;6.57;;;5.10;;
1346;SDS011;667;48.796;9.480;2022-10-10T03:45:06;5.73;;;4.77;;
1346;SDS011;667;48.796;9.480;2022-10-10T03:47:32;8.90;;;4.83;;
1346;SDS011;667;48.796;9.480;2022-10-10T03:49:58;4.90;;;4.50;;
1346;SDS011;667;48.796;9.480;2022-10-10T03:52:23;5.53;;;4.70;;
1346;SDS011;667;48.796;9.480;2022-10-10T03:54:49;6.10;;;4.87;;
1346;SDS011;667;48.796;9.480;2022-10-10T03:57:14;5.00;;;4.37;;
1346;SDS011;667;48.796;9.480;2022-10-10T03:59:40;6.80;;;5.50;;
1346;SDS011;667;48.796;9.480;2022-10-10T04:02:05;4.97;;;4.57;;
1346;SDS011;667;48.796;9.480;2022-10-10T04:04:31;4.97;;;4.57;;
1346;SDS011;667;48.796;9.480;2022-10-10T04:06:56;5.93;;;5.43;;
1346;SDS011;667;48.796;9.480;2022-10-10T04:09:22;6.43;;;5.40;;
1346;SDS011;667;48.796;9.480;2022-10-10T04:11:48;5.97;;;5.07;;
1346;SDS011;667;48.796;9.480;2022-10-10T04:14:13;4.40;;;4.10;;
1346;SDS011;667;48.796;9.480;2022-10-10T04:16:39;5.83;;;4.73;;
1346;SDS011;667;48.796;9.480;2022-10-10T04:19:04;5.00;;;4.13;;
1346;SDS011;667;48.796;9.480;2022-10-10T04:21:30;5.60;;;5.10;;
1346;SDS011;667;48.796;9.480;2022-10-10T04:23:55;6.27;;;4.80;;
1346;SDS011;667;48.796;9.480;2022-10-10T04:26:21;5.10;;;4.70;;
1346;SDS011;667;48.796;9.480;2022-10-10T04:28:46;5.73;;;5.00;;
1346;SDS011;667;48.796;9.480;2022-10-10T04:31:12;6.23;;;5.30;;
1346;SDS011;667;48.796;9.480;2022-10-10T04:33:38;5.70;;;5.20;;
1346;SDS011;667;48.796;9.480;2022-10-10T04:36:03;7.87;;;4.30;;
1346;SDS011;667;48.796;9.480;2022-10-10T04:38:29;4.87;;;4.37;;
1346;SDS011;667;48.796;9.480;2022-10-10T04:40:55;5.63;;;4.80;;
1346;SDS011;667;48.796;9.480;2022-10-10T04:43:20;6.00;;;5.40;;
1346;SDS011;667;48.796;9.480;2022-10-10T04:45:46;4.77;;;4.27;;
1346;SDS011;667;48.796;9.480;2022-10-10T04:48:11;4.80;;;4.40;;
1346;SDS011;667;48.796;9.480;2022-10-10T04:50:37;5.80;;;5.30;;
1346;SDS011;667;48.796;9.480;2022-10-10T04:53:03;5.63;;;4.90;;
1346;SDS011;667;48.796;9.480;2022-10-10T04:55:28;6.00;;;5.43;;
1346;SDS011;667;48.796;9.480;2022-10-10T04:57:54;5.67;;;5.17;;
1346;SDS011;667;48.796;9.480;2022-10-10T05:00:19;7.37;;;4.73;;
1346;SDS011;667;48.796;9.480;2022-10-10T05:02:45;5.23;;;4.73;;
1346;SDS011;667;48.796;9.480;2022-10-10T05:05:10;4.90;;;4.40;;
1346;SDS011;667;48.796;9.480;2022-10-10T05:07:36;5.63;;;4.90;;
1346;SDS011;667;48.796;9.480;2022-10-10T05:10:02;5.60;;;5.10;;
1346;SDS011;667;48.796;9.480;2022-10-10T05:12:29;6.00;;;5.43;;
1346;SDS011;667;48.796;9.480;2022-10-10T05:14:55;6.30;;;5.00;;
1346;SDS011;667;48.796;9.480;2022-10-10T05:17:21;5.13;;;4.73;;
1346;SDS011;667;48.796;9.480;2022-10-10T05:19:46;6.93;;;5.40;;
1346;SDS011;667;48.796;9.480;2022-10-10T05:22:12;5.83;;;5.30;;
1346;SDS011;667;48.796;9.480;2022-10-10T05:24:37;6.50;;;5.03;;
1346;SDS011;667;48.796;9.480;2022-10-10T05:27:04;5.20;;;4.70;;
1346;SDS011;667;48.796;9.480;2022-10-10T05:29:30;6.13;;;5.37;;
1346;SDS011;667;48.796;9.480;2022-10-10T05:31:55;6.83;;;5.30;;
1346;SDS011;667;48.796;9.480;2022-10-10T05:34:21;5.33;;;4.93;;
1346;SDS011;667;48.796;9.480;2022-10-10T05:36:46;5.83;;;5.23;;
1346;SDS011;667;48.796;9.480;2022-10-10T05:39:12;5.77;;;5.20;;
1346;SDS011;667;48.796;9.480;2022-10-10T05:41:37;4.87;;;4.47;;
1346;SDS011;667;48.796;9.480;2022-10-10T05:44:03;8.37;;;5.30;;
1346;SDS011;667;48.796;9.480;2022-10-10T05:46:29;6.40;;;5.20;;
1346;SDS011;667;48.796;9.480;2022-10-10T05:48:54;5.87;;;4.97;;
1346;SDS011;667;48.796;9.480;2022-10-10T05:51:20;6.03;;;5.43;;
1346;SDS011;667;48.796;9.480;2022-10-10T05:53:46;6.63;;;5.90;;
1346;SDS011;667;48.796;9.480;2022-10-10T05:56:12;4.57;;;4.20;;
1346;SDS011;667;48.796;9.480;2022-10-10T05:58:40;6.57;;;5.57;;
1346;SDS011;667;48.796;9.480;2022-10-10T06:01:06;6.10;;;5.60;;
1346;SDS011;667;48.796;9.480;2022-10-10T06:03:32;7.33;;;6.50;;
1346;SDS011;667;48.796;9.480;2022-10-10T06:05:59;5.97;;;5.38;;
1346;SDS011;667;48.796;9.480;2022-10-10T06:08:24;6.23;;;5.63;;
1346;SDS011;667;48.796;9.480;2022-10-10T06:10:50;5.23;;;4.73;;
1346;SDS011;667;48.796;9.480;2022-10-10T06:13:16;6.72;;;5.38;;
1346;SDS011;667;48.796;9.480;2022-10-10T06:15:43;6.75;;;5.15;;
1346;SDS011;667;48.796;9.480;2022-10-10T06:18:09;5.80;;;5.20;;
1346;SDS011;667;48.796;9.480;2022-10-10T06:20:38;5.10;;;4.60;;
1346;SDS011;667;48.796;9.480;2022-10-10T06:23:05;5.70;;;5.20;;
1346;SDS011;667;48.796;9.480;2022-10-10T06:25:32;6.20;;;5.45;;
1346;SDS011;667;48.796;9.480;2022-10-10T06:27:59;6.07;;;5.43;;
1346;SDS011;667;48.796;9.480;2022-10-10T06:30:25;6.30;;;5.60;;
1346;SDS011;667;48.796;9.480;2022-10-10T06:32:51;5.97;;;5.30;;
1346;SDS011;667;48.796;9.480;2022-10-10T06:35:17;7.23;;;5.37;;
1346;SDS011;667;48.796;9.480;2022-10-10T06:37:43;5.30;;;4.80;;
1346;SDS011;667;48.796;9.480;2022-10-10T06:40:08;5.73;;;5.00;;
1346;SDS011;667;48.796;9.480;2022-10-10T06:42:34;8.40;;;5.80;;
1346;SDS011;667;48.796;9.480;2022-10-10T06:45:00;6.30;;;5.70;;
1346;SDS011;667;48.796;9.480;2022-10-10T06:47:25;7.30;;;5.70;;
1346;SDS011;667;48.796;9.480;2022-10-10T06:49:51;8.15;;;5.38;;
1346;SDS011;667;48.796;9.480;2022-10-10T06:52:17;7.63;;;5.83;;
1346;SDS011;667;48.796;9.480;2022-10-10T06:54:43;6.93;;;5.82;;
1346;SDS011;667;48.796;9.480;2022-10-10T06:57:09;7.17;;;6.47;;
1346;SDS011;667;48.796;9.480;2022-10-10T06:59:34;8.00;;;7.20;;
1346;SDS011;667;48.796;9.480;2022-10-10T07:02:00;10.40;;;6.83;;
1346;SDS011;667;48.796;9.480;2022-10-10T07:04:26;9.50;;;8.37;;
1346;SDS011;667;48.796;9.480;2022-10-10T07:06:51;9.00;;;8.10;;
1346;SDS011;667;48.796;9.480;2022-10-10T07:09:17;12.90;;;8.20;;
1346;SDS011;667;48.796;9.480;2022-10-10T07:11:44;9.95;;;8.00;;
1346;SDS011;667;48.796;9.480;2022-10-10T07:14:12;9.90;;;8.50;;
1346;SDS011;667;48.796;9.480;2022-10-10T07:16:38;9.00;;;8.10;;
1346;SDS011;667;48.796;9.480;2022-10-10T07:19:04;9.73;;;8.73;;
1346;SDS011;667;48.796;9.480;2022-10-10T07:21:30;9.33;;;8.27;;
1346;SDS011;667;48.796;9.480;2022-10-10T07:23:56;9.50;;;8.60;;
1346;SDS011;667;48.796;9.480;2022-10-10T07:26:22;12.40;;;8.90;;
1346;SDS011;667;48.796;9.480;2022-10-10T07:28:50;10.88;;;8.93;;
1346;SDS011;667;48.796;9.480;2022-10-10T07:31:16;10.20;;;9.10;;
1346;SDS011;667;48.796;9.480;2022-10-10T07:33:43;10.13;;;9.10;;
1346;SDS011;667;48.796;9.480;2022-10-10T07:36:10;9.82;;;8.85;;
1346;SDS011;667;48.796;9.480;2022-10-10T07:38:36;9.73;;;8.73;;
1346;SDS011;667;48.796;9.480;2022-10-10T07:41:05;9.60;;;8.60;;
1346;SDS011;667;48.796;9.480;2022-10-10T07:43:35;10.98;;;8.75;;
1346;SDS011;667;48.796;9.480;2022-10-10T07:46:02;9.60;;;8.63;;
1346;SDS011;667;48.796;9.480;2022-10-10T07:48:29;9.88;;;9.07;;
1346;SDS011;667;48.796;9.480;2022-10-10T07:50:55;10.63;;;8.90;;
1346;SDS011;667;48.796;9.480;2022-10-10T07:53:20;11.13;;;9.27;;
1346;SDS011;667;48.796;9.480;2022-10-10T07:55:51;10.60;;;8.57;;
1346;SDS011;667;48.796;9.480;2022-10-10T07:58:17;9.90;;;8.60;;
1346;SDS011;667;48.796;9.480;2022-10-10T08:00:42;10.13;;;9.13;;
1346;SDS011;667;48.796;9.480;2022-10-10T08:03:08;11.03;;;9.87;;
1346;SDS011;667;48.796;9.480;2022-10-10T08:05:43;12.63;;;9.50;;
1346;SDS011;667;48.796;9.480;2022-10-10T08:08:10;10.18;;;9.20;;
1346;SDS011;667;48.796;9.480;2022-10-10T08:10:36;11.37;;;9.10;;
1346;SDS011;667;48.796;9.480;2022-10-10T08:13:02;11.80;;;10.23;;
1346;SDS011;667;48.796;9.480;2022-10-10T08:15:28;10.98;;;9.60;;
1346;SDS011;667;48.796;9.480;2022-10-10T08:17:54;10.77;;;8.80;;
1346;SDS011;667;48.796;9.480;2022-10-10T08:20:20;10.83;;;9.00;;
1346;SDS011;667;48.796;9.480;2022-10-10T08:22:45;10.67;;;9.13;;
1346;SDS011;667;48.796;9.480;2022-10-10T08:25:11;9.07;;;8.27;;
1346;SDS011;667;48.796;9.480;2022-10-10T08:27:36;11.70;;;7.97;;
1346;SDS011;667;48.796;9.480;2022-10-10T08:30:02;9.33;;;8.53;;
1346;SDS011;667;48.796;9.480;2022-10-10T08:32:28;11.57;;;8.30;;
1346;SDS011;667;48.796;9.480;2022-10-10T08:34:54;10.20;;;9.00;;
1346;SDS011;667;48.796;9.480;2022-10-10T08:37:20;11.93;;;9.67;;
1346;SDS011;667;48.796;9.480;2022-10-10T08:39:45;10.00;;;9.00;;
1346;SDS011;667;48.796;9.480;2022-10-10T08:42:20;10.90;;;9.90;;
1346;SDS011;667;48.796;9.480;2022-10-10T08:44:54;14.07;;;9.25;;
1346;SDS011;667;48.796;9.480;2022-10-10T08:47:27;10.63;;;9.27;;
1346;SDS011;667;48.796;9.480;2022-10-10T08:50:02;11.07;;;9.93;;
1346;SDS011;667;48.796;9.480;2022-10-10T08:52:50;10.65;;;9.60;;
1346;SDS011;667;48.796;9.480;2022-10-10T08:55:22;10.85;;;9.63;;
1346;SDS011;667;48.796;9.480;2022-10-10T09:00:48;12.10;;;9.10;;
1346;SDS011;667;48.796;9.480;2022-10-10T09:03:22;12.80;;;9.27;;
1346;SDS011;667;48.796;9.480;2022-10-10T09:17:57;11.35;;;8.63;;
1346;SDS011;667;48.796;9.480;2022-10-10T09:23:22;10.00;;;9.00;;
1346;SDS011;667;48.796;9.480;2022-10-10T09:25:52;11.85;;;8.65;;
1346;SDS011;667;48.796;9.480;2022-10-10T09:31:03;9.63;;;8.83;;
1346;SDS011;667;48.796;9.480;2022-10-10T09:33:39;10.30;;;9.30;;
1346;SDS011;667;48.796;9.480;2022-10-10T09:36:10;10.93;;;9.93;;
1346;SDS011;667;48.796;9.480;2022-10-10T09:38:46;9.43;;;8.50;;
1346;SDS011;667;48.796;9.480;2022-10-10T09:41:19;9.70;;;8.60;;
1346;SDS011;667;48.796;9.480;2022-10-10T09:43:59;10.20;;;9.20;;
1346;SDS011;667;48.796;9.480;2022-10-10T09:46:29;8.77;;;7.97;;
1346;SDS011;667;48.796;9.480;2022-10-10T09:48:55;12.00;;;8.60;;
1346;SDS011;667;48.796;9.480;2022-10-10T09:51:21;10.43;;;8.60;;
1346;SDS011;667;48.796;9.480;2022-10-10T09:53:47;8.50;;;7.40;;
1346;SDS011;667;48.796;9.480;2022-10-10T09:56:17;9.70;;;8.80;;
1346;SDS011;667;48.796;9.480;2022-10-10T09:58:47;11.20;;;9.07;;
1346;SDS011;667;48.796;9.480;2022-10-10T10:01:18;8.40;;;7.60;;
1346;SDS011;667;48.796;9.480;2022-10-10T10:03:44;8.40;;;7.60;;
1346;SDS011;667;48.796;9.480;2022-10-10T10:06:32;11.20;;;8.90;;
1346;SDS011;667;48.796;9.480;2022-10-10T10:09:01;9.90;;;8.90;;
1346;SDS011;667;48.796;9.480;2022-10-10T10:11:33;10.23;;;9.23;;
1346;SDS011;667;48.796;9.480;2022-10-10T10:14:00;10.10;;;9.13;;
1346;SDS011;667;48.796;9.480;2022-10-10T10:16:34;11.47;;;10.07;;
1346;SDS011;667;48.796;9.480;2022-10-10T10:19:03;13.83;;;9.87;;
1346;SDS011;667;48.796;9.480;2022-10-10T10:21:37;9.63;;;8.07;;
1346;SDS011;667;48.796;9.480;2022-10-10T10:24:19;10.10;;;8.97;;
1346;SDS011;667;48.796;9.480;2022-10-10T10:26:48;10.47;;;9.37;;
1346;SDS011;667;48.796;9.480;2022-10-10T10:34:39;9.53;;;8.63;;
1346;SDS011;667;48.796;9.480;2022-10-10T10:37:23;9.50;;;8.43;;
1346;SDS011;667;48.796;9.480;2022-10-10T10:47:59;10.50;;;8.90;;
1346;SDS011;667;48.796;9.480;2022-10-10T10:50:43;9.07;;;8.17;;
1346;SDS011;667;48.796;9.480;2022-10-10T10:53:20;9.83;;;8.83;;
1346;SDS011;667;48.796;9.480;2022-10-10T10:58:20;11.60;;;6.63;;
1346;SDS011;667;48.796;9.480;2022-10-10T11:00:59;7.57;;;6.73;;
1346;SDS011;667;48.796;9.480;2022-10-10T11:09:07;7.00;;;6.30;;
1346;SDS011;667;48.796;9.480;2022-10-10T11:17:13;5.77;;;5.20;;
1346;SDS011;667;48.796;9.480;2022-10-10T11:19:59;6.23;;;5.47;;
1346;SDS011;667;48.796;9.480;2022-10-10T11:22:40;6.03;;;5.43;;
1346;SDS011;667;48.796;9.480;2022-10-10T11:25:24;5.23;;;4.83;;
1346;SDS011;667;48.796;9.480;2022-10-10T11:27:59;8.83;;;5.20;;
1346;SDS011;667;48.796;9.480;2022-10-10T11:30:38;5.67;;;4.43;;
1346;SDS011;667;48.796;9.480;2022-10-10T11:33:11;6.00;;;5.30;;
1346;SDS011;667;48.796;9.480;2022-10-10T11:35:45;5.40;;;4.87;;
1346;SDS011;667;48.796;9.480;2022-10-10T11:41:02;6.40;;;4.70;;
1346;SDS011;667;48.796;9.480;2022-10-10T11:43:35;4.70;;;4.30;;
1346;SDS011;667;48.796;9.480;2022-10-10T11:46:43;7.90;;;4.60;;
1346;SDS011;667;48.796;9.480;2022-10-10T11:49:16;4.13;;;3.73;;
1346;SDS011;667;48.796;9.480;2022-10-10T11:54:37;4.43;;;3.50;;
1346;SDS011;667;48.796;9.480;2022-10-10T11:57:11;5.87;;;3.53;;
1346;SDS011;667;48.796;9.480;2022-10-10T11:59:43;4.07;;;3.67;;
1346;SDS011;667;48.796;9.480;2022-10-10T12:02:33;7.23;;;3.30;;
1346;SDS011;667;48.796;9.480;2022-10-10T12:05:00;3.83;;;3.53;;
1346;SDS011;667;48.796;9.480;2022-10-10T12:07:38;6.93;;;3.50;;
1346;SDS011;667;48.796;9.480;2022-10-10T12:10:25;7.60;;;3.40;;
1346;SDS011;667;48.796;9.480;2022-10-10T12:12:58;7.97;;;3.70;;
1346;SDS011;667;48.796;9.480;2022-10-10T12:15:33;6.73;;;3.53;;
1346;SDS011;667;48.796;9.480;2022-10-10T12:18:01;5.40;;;3.00;;
1346;SDS011;667;48.796;9.480;2022-10-10T12:25:40;8.97;;;3.40;;
1346;SDS011;667;48.796;9.480;2022-10-10T12:33:19;5.70;;;3.27;;
1346;SDS011;667;48.796;9.480;2022-10-10T12:52:34;7.83;;;3.90;;
1346;SDS011;667;48.796;9.480;2022-10-10T12:55:28;9.63;;;5.10;;
1346;SDS011;667;48.796;9.480;2022-10-10T13:00:58;8.10;;;3.50;;
1346;SDS011;667;48.796;9.480;2022-10-10T13:03:27;7.23;;;3.60;;
1346;SDS011;667;48.796;9.480;2022-10-10T13:06:22;6.63;;;3.93;;
1346;SDS011;667;48.796;9.480;2022-10-10T13:08:51;7.70;;;4.10;;
1346;SDS011;667;48.796;9.480;2022-10-10T13:11:18;5.73;;;3.33;;
1346;SDS011;667;48.796;9.480;2022-10-10T13:13:54;7.07;;;4.43;;
1346;SDS011;667;48.796;9.480;2022-10-10T13:16:22;10.47;;;3.97;;
1346;SDS011;667;48.796;9.480;2022-10-10T13:18:50;9.83;;;3.50;;
1346;SDS011;667;48.796;9.480;2022-10-10T13:21:18;7.17;;;3.60;;
1346;SDS011;667;48.796;9.480;2022-10-10T13:23:46;9.07;;;4.13;;
1346;SDS011;667;48.796;9.480;2022-10-10T13:26:20;13.03;;;3.77;;
1346;SDS011;667;48.796;9.480;2022-10-10T13:28:48;6.90;;;3.60;;
1346;SDS011;667;48.796;9.480;2022-10-10T13:31:15;6.30;;;3.30;;
1346;SDS011;667;48.796;9.480;2022-10-10T13:33:41;6.47;;;4.13;;
1346;SDS011;667;48.796;9.480;2022-10-10T13:36:14;7.63;;;5.60;;
1346;SDS011;667;48.796;9.480;2022-10-10T13:38:45;4.93;;;3.70;;
1346;SDS011;667;48.796;9.480;2022-10-10T13:41:12;4.90;;;3.97;;
1346;SDS011;667;48.796;9.480;2022-10-10T13:43:39;6.27;;;4.13;;
1346;SDS011;667;48.796;9.480;2022-10-10T13:46:05;4.10;;;3.70;;
1346;SDS011;667;48.796;9.480;2022-10-10T13:48:42;7.90;;;4.13;;
1346;SDS011;667;48.796;9.480;2022-10-10T13:51:09;9.33;;;4.73;;
1346;SDS011;667;48.796;9.480;2022-10-10T13:53:44;7.77;;;3.80;;
1346;SDS011;667;48.796;9.480;2022-10-10T13:58:38;6.27;;;3.40;;
1346;SDS011;667;48.796;9.480;2022-10-10T14:03:55;8.00;;;3.80;;
1346;SDS011;667;48.796;9.480;2022-10-10T14:06:24;8.30;;;4.43;;
1346;SDS011;667;48.796;9.480;2022-10-10T14:08:51;7.90;;;3.80;;
1346;SDS011;667;48.796;9.480;2022-10-10T14:11:21;8.70;;;4.70;;
1346;SDS011;667;48.796;9.480;2022-10-10T14:13:51;8.17;;;4.03;;
1346;SDS011;667;48.796;9.480;2022-10-10T14:16:22;7.53;;;4.37;;
1346;SDS011;667;48.796;9.480;2022-10-10T14:18:50;7.13;;;3.80;;
1346;SDS011;667;48.796;9.480;2022-10-10T14:21:16;8.53;;;4.53;;
1346;SDS011;667;48.796;9.480;2022-10-10T14:23:42;8.03;;;3.40;;
1346;SDS011;667;48.796;9.480;2022-10-10T14:26:15;10.87;;;5.47;;
1346;SDS011;667;48.796;9.480;2022-10-10T14:28:42;7.00;;;4.20;;
1346;SDS011;667;48.796;9.480;2022-10-10T14:31:08;7.03;;;4.07;;
1346;SDS011;667;48.796;9.480;2022-10-10T14:33:34;5.23;;;3.63;;
1346;SDS011;667;48.796;9.480;2022-10-10T14:36:00;4.57;;;3.70;;
1346;SDS011;667;48.796;9.480;2022-10-10T14:38:26;5.30;;;3.90;;
1346;SDS011;667;48.796;9.480;2022-10-10T14:40:52;7.67;;;4.00;;
1346;SDS011;667;48.796;9.480;2022-10-10T14:43:19;9.17;;;4.43;;
1346;SDS011;667;48.796;9.480;2022-10-10T14:45:47;7.73;;;4.23;;
1346;SDS011;667;48.796;9.480;2022-10-10T14:48:14;8.27;;;4.73;;
1346;SDS011;667;48.796;9.480;2022-10-10T14:50:40;7.33;;;4.37;;
1346;SDS011;667;48.796;9.480;2022-10-10T14:53:08;7.47;;;3.83;;
1346;SDS011;667;48.796;9.480;2022-10-10T14:55:34;5.37;;;3.77;;
1346;SDS011;667;48.796;9.480;2022-10-10T14:58:00;7.43;;;3.43;;
1346;SDS011;667;48.796;9.480;2022-10-10T15:00:26;12.57;;;3.80;;
1346;SDS011;667;48.796;9.480;2022-10-10T15:02:52;9.53;;;4.57;;
1346;SDS011;667;48.796;9.480;2022-10-10T15:05:18;8.67;;;4.20;;
1346;SDS011;667;48.796;9.480;2022-10-10T15:07:44;7.47;;;4.00;;
1346;SDS011;667;48.796;9.480;2022-10-10T15:10:11;6.60;;;4.07;;
1346;SDS011;667;48.796;9.480;2022-10-10T15:12:38;10.73;;;4.10;;
1346;SDS011;667;48.796;9.480;2022-10-10T15:15:06;6.50;;;3.80;;
1346;SDS011;667;48.796;9.480;2022-10-10T15:17:32;4.10;;;3.70;;
1346;SDS011;667;48.796;9.480;2022-10-10T15:19:59;15.20;;;4.07;;
1346;SDS011;667;48.796;9.480;2022-10-10T15:22:25;6.50;;;3.80;;
1346;SDS011;667;48.796;9.480;2022-10-10T15:24:52;4.50;;;3.90;;
1346;SDS011;667;48.796;9.480;2022-10-10T15:27:17;7.23;;;4.30;;
1346;SDS011;667;48.796;9.480;2022-10-10T15:29:43;6.00;;;5.20;;
1346;SDS011;667;48.796;9.480;2022-10-10T15:32:09;6.70;;;4.23;;
1346;SDS011;667;48.796;9.480;2022-10-10T15:34:34;4.73;;;4.07;;
1346;SDS011;667;48.796;9.480;2022-10-10T15:37:00;8.77;;;4.30;;
1346;SDS011;667;48.796;9.480;2022-10-10T15:39:26;7.10;;;4.20;;
1346;SDS011;667;48.796;9.480;2022-10-10T15:41:53;4.87;;;4.40;;
1346;SDS011;667;48.796;9.480;2022-10-10T15:44:18;6.43;;;4.83;;
1346;SDS011;667;48.796;9.480;2022-10-10T15:46:44;6.87;;;4.40;;
1346;SDS011;667;48.796;9.480;2022-10-10T15:49:11;9.83;;;4.60;;
1346;SDS011;667;48.796;9.480;2022-10-10T15:51:37;4.70;;;4.13;;
1346;SDS011;667;48.796;9.480;2022-10-10T15:54:07;5.80;;;4.00;;
1346;SDS011;667;48.796;9.480;2022-10-10T15:56:33;6.17;;;3.97;;
1346;SDS011;667;48.796;9.480;2022-10-10T15:58:59;7.93;;;4.50;;
1346;SDS011;667;48.796;9.480;2022-10-10T16:01:26;9.30;;;4.50;;
1346;SDS011;667;48.796;9.480;2022-10-10T16:03:52;8.57;;;4.90;;
1346;SDS011;667;48.796;9.480;2022-10-10T16:06:19;7.23;;;4.93;;
1346;SDS011;667;48.796;9.480;2022-10-10T16:08:46;8.27;;;4.70;;
1346;SDS011;667;48.796;9.480;2022-10-10T16:11:14;5.50;;;4.17;;
1346;SDS011;667;48.796;9.480;2022-10-10T16:13:42;6.40;;;4.73;;
1346;SDS011;667;48.796;9.480;2022-10-10T16:16:12;9.13;;;4.00;;
1346;SDS011;667;48.796;9.480;2022-10-10T16:18:38;7.10;;;3.90;;
1346;SDS011;667;48.796;9.480;2022-10-10T16:21:05;11.97;;;4.93;;
1346;SDS011;667;48.796;9.480;2022-10-10T16:23:36;5.90;;;4.53;;
1346;SDS011;667;48.796;9.480;2022-10-10T16:26:06;7.67;;;4.40;;
1346;SDS011;667;48.796;9.480;2022-10-10T16:28:34;8.10;;;3.50;;
1346;SDS011;667;48.796;9.480;2022-10-10T16:31:04;6.90;;;4.77;;
1346;SDS011;667;48.796;9.480;2022-10-10T16:33:34;9.53;;;4.90;;
1346;SDS011;667;48.796;9.480;2022-10-10T16:36:06;6.60;;;4.00;;
1346;SDS011;667;48.796;9.480;2022-10-10T16:38:36;9.10;;;4.70;;
1346;SDS011;667;48.796;9.480;2022-10-10T16:41:05;6.07;;;4.10;;
1346;SDS011;667;48.796;9.480;2022-10-10T16:43:35;10.47;;;4.00;;
1346;SDS011;667;48.796;9.480;2022-10-10T16:46:06;7.20;;;4.63;;
1346;SDS011;667;48.796;9.480;2022-10-10T16:48:34;11.13;;;5.00;;
1346;SDS011;667;48.796;9.480;2022-10-10T16:51:01;6.80;;;3.77;;
1346;SDS011;667;48.796;9.480;2022-10-10T16:53:31;4.87;;;3.77;;
1346;SDS011;667;48.796;9.480;2022-10-10T16:55:58;8.73;;;4.37;;
1346;SDS011;667;48.796;9.480;2022-10-10T16:58:27;10.07;;;4.40;;
1346;SDS011;667;48.796;9.480;2022-10-10T17:00:53;7.03;;;4.87;;
1346;SDS011;667;48.796;9.480;2022-10-10T17:03:19;6.23;;;4.50;;
1346;SDS011;667;48.796;9.480;2022-10-10T17:05:46;7.50;;;4.00;;
1346;SDS011;667;48.796;9.480;2022-10-10T17:08:12;7.23;;;5.67;;
1346;SDS011;667;48.796;9.480;2022-10-10T17:10:37;9.43;;;5.27;;
1346;SDS011;667;48.796;9.480;2022-10-10T17:13:03;12.07;;;7.23;;
1346;SDS011;667;48.796;9.480;2022-10-10T17:15:29;13.43;;;6.43;;
1346;SDS011;667;48.796;9.480;2022-10-10T17:17:54;10.10;;;5.20;;
1346;SDS011;667;48.796;9.480;2022-10-10T17:20:20;10.03;;;5.40;;
1346;SDS011;667;48.796;9.480;2022-10-10T17:22:46;9.90;;;4.47;;
1346;SDS011;667;48.796;9.480;2022-10-10T17:25:12;7.83;;;5.00;;
1346;SDS011;667;48.796;9.480;2022-10-10T17:27:37;8.33;;;4.37;;